sensor_id;sensor_type;location;lat;lon;timestamp;pressure;altitude;pressure_sealevel;temperature;humidity
52719;BME280;38616;42.140;24.760;2023-01-26T00:00:23;100471.00;;;4.74;56.55
52719;BME280;38616;42.140;24.760;2023-01-26T00:02:49;100466.56;;;4.86;55.59
52719;BME280;38616;42.140;24.760;2023-01-26T00:05:14;100471.50;;;4.90;55.51
52719;BME280;38616;42.140;24.760;2023-01-26T00:07:40;100472.44;;;5.02;54.06
52719;BME280;38616;42.140;24.760;2023-01-26T00:10:10;100474.69;;;5.05;53.58
52719;BME280;38616;42.140;24.760;2023-01-26T00:12:36;100453.81;;;4.75;54.19
52719;BME280;38616;42.140;24.760;2023-01-26T00:15:01;100445.09;;;4.80;54.27
52719;BME280;38616;42.140;24.760;2023-01-26T00:17:27;100437.66;;;4.75;53.99
52719;BME280;38616;42.140;24.760;2023-01-26T00:19:54;100434.16;;;4.49;53.81
52719;BME280;38616;42.140;24.760;2023-01-26T00:22:20;100425.81;;;4.57;53.83
52719;BME280;38616;42.140;24.760;2023-01-26T00:24:46;100429.59;;;4.24;55.18
52719;BME280;38616;42.140;24.760;2023-01-26T00:27:11;100420.34;;;3.81;58.12
52719;BME280;38616;42.140;24.760;2023-01-26T00:29:36;100428.03;;;4.10;57.97
52719;BME280;38616;42.140;24.760;2023-01-26T00:32:02;100419.88;;;4.23;57.97
52719;BME280;38616;42.140;24.760;2023-01-26T00:34:48;100429.53;;;4.56;57.37
52719;BME280;38616;42.140;24.760;2023-01-26T00:37:13;100424.50;;;4.67;57.67
52719;BME280;38616;42.140;24.760;2023-01-26T00:39:38;100433.44;;;4.61;57.70
52719;BME280;38616;42.140;24.760;2023-01-26T00:42:04;100417.31;;;4.35;58.17
52719;BME280;38616;42.140;24.760;2023-01-26T00:44:36;100415.75;;;4.46;58.65
52719;BME280;38616;42.140;24.760;2023-01-26T00:47:03;100419.00;;;4.29;59.00
52719;BME280;38616;42.140;24.760;2023-01-26T00:49:28;100432.28;;;4.24;58.95
52719;BME280;38616;42.140;24.760;2023-01-26T00:51:53;100432.06;;;4.51;57.98
52719;BME280;38616;42.140;24.760;2023-01-26T00:54:19;100411.81;;;4.23;58.43
52719;BME280;38616;42.140;24.760;2023-01-26T00:56:44;100412.94;;;4.59;57.71
52719;BME280;38616;42.140;24.760;2023-01-26T00:59:10;100412.34;;;4.32;58.29
52719;BME280;38616;42.140;24.760;2023-01-26T01:01:35;100410.34;;;4.27;57.78
52719;BME280;38616;42.140;24.760;2023-01-26T01:04:01;100419.13;;;4.09;58.05
52719;BME280;38616;42.140;24.760;2023-01-26T01:06:26;100415.44;;;4.36;58.55
52719;BME280;38616;42.140;24.760;2023-01-26T01:08:51;100414.50;;;4.23;58.08
52719;BME280;38616;42.140;24.760;2023-01-26T01:11:17;100413.84;;;4.28;58.08
52719;BME280;38616;42.140;24.760;2023-01-26T01:13:42;100411.16;;;4.28;58.17
52719;BME280;38616;42.140;24.760;2023-01-26T01:16:09;100408.28;;;4.48;57.97
52719;BME280;38616;42.140;24.760;2023-01-26T01:18:35;100402.63;;;4.06;58.47
52719;BME280;38616;42.140;24.760;2023-01-26T01:21:12;100407.38;;;4.36;58.10
52719;BME280;38616;42.140;24.760;2023-01-26T01:23:38;100398.88;;;4.39;57.75
52719;BME280;38616;42.140;24.760;2023-01-26T01:26:04;100396.88;;;4.53;56.99
52719;BME280;38616;42.140;24.760;2023-01-26T01:28:32;100399.47;;;4.66;55.69
52719;BME280;38616;42.140;24.760;2023-01-26T01:30:57;100387.72;;;4.79;55.40
52719;BME280;38616;42.140;24.760;2023-01-26T01:33:23;100388.34;;;4.81;55.25
52719;BME280;38616;42.140;24.760;2023-01-26T01:35:56;100390.66;;;4.78;55.56
52719;BME280;38616;42.140;24.760;2023-01-26T01:38:22;100393.34;;;4.96;54.30
52719;BME280;38616;42.140;24.760;2023-01-26T01:40:47;100372.78;;;5.02;53.31
52719;BME280;38616;42.140;24.760;2023-01-26T01:43:13;100368.91;;;4.98;52.93
52719;BME280;38616;42.140;24.760;2023-01-26T01:45:43;100379.56;;;4.86;52.78
52719;BME280;38616;42.140;24.760;2023-01-26T01:51:03;100381.72;;;4.33;55.51
52719;BME280;38616;42.140;24.760;2023-01-26T01:53:37;100371.22;;;4.25;56.29
52719;BME280;38616;42.140;24.760;2023-01-26T01:56:08;100369.72;;;4.36;56.02
52719;BME280;38616;42.140;24.760;2023-01-26T01:58:39;100361.03;;;4.34;56.52
52719;BME280;38616;42.140;24.760;2023-01-26T02:01:07;100349.84;;;4.37;57.03
52719;BME280;38616;42.140;24.760;2023-01-26T02:03:33;100346.53;;;4.35;57.50
52719;BME280;38616;42.140;24.760;2023-01-26T02:08:42;100356.19;;;4.17;58.23
52719;BME280;38616;42.140;24.760;2023-01-26T02:11:10;100352.94;;;4.08;57.67
52719;BME280;38616;42.140;24.760;2023-01-26T02:13:38;100355.19;;;3.86;58.18
52719;BME280;38616;42.140;24.760;2023-01-26T02:16:05;100341.66;;;3.99;58.22
52719;BME280;38616;42.140;24.760;2023-01-26T02:18:30;100347.78;;;4.07;58.59
52719;BME280;38616;42.140;24.760;2023-01-26T02:20:59;100342.34;;;3.88;58.60
52719;BME280;38616;42.140;24.760;2023-01-26T02:26:04;100335.06;;;3.63;59.86
52719;BME280;38616;42.140;24.760;2023-01-26T02:28:30;100343.56;;;3.92;59.19
52719;BME280;38616;42.140;24.760;2023-01-26T02:30:57;100340.88;;;3.92;59.23
52719;BME280;38616;42.140;24.760;2023-01-26T02:33:27;100340.72;;;4.38;58.38
52719;BME280;38616;42.140;24.760;2023-01-26T02:35:53;100337.34;;;4.42;57.54
52719;BME280;38616;42.140;24.760;2023-01-26T02:38:20;100331.91;;;4.49;57.29
52719;BME280;38616;42.140;24.760;2023-01-26T02:41:06;100329.78;;;4.07;58.29
52719;BME280;38616;42.140;24.760;2023-01-26T02:43:32;100323.50;;;4.20;57.84
52719;BME280;38616;42.140;24.760;2023-01-26T02:45:58;100317.38;;;4.06;58.65
52719;BME280;38616;42.140;24.760;2023-01-26T02:48:24;100318.75;;;4.41;58.78
52719;BME280;38616;42.140;24.760;2023-01-26T02:51:08;100308.56;;;4.43;59.59
52719;BME280;38616;42.140;24.760;2023-01-26T02:53:34;100309.72;;;4.54;59.92
52719;BME280;38616;42.140;24.760;2023-01-26T02:55:59;100318.19;;;4.76;59.72
52719;BME280;38616;42.140;24.760;2023-01-26T02:58:25;100308.88;;;4.35;60.85
52719;BME280;38616;42.140;24.760;2023-01-26T03:00:50;100308.81;;;4.41;60.99
52719;BME280;38616;42.140;24.760;2023-01-26T03:03:19;100307.69;;;4.31;61.54
52719;BME280;38616;42.140;24.760;2023-01-26T03:05:46;100309.88;;;4.59;60.91
52719;BME280;38616;42.140;24.760;2023-01-26T03:08:11;100309.75;;;4.28;61.52
52719;BME280;38616;42.140;24.760;2023-01-26T03:10:37;100311.84;;;4.26;61.68
52719;BME280;38616;42.140;24.760;2023-01-26T03:13:03;100306.59;;;4.13;62.18
52719;BME280;38616;42.140;24.760;2023-01-26T03:15:29;100292.25;;;4.19;62.13
52719;BME280;38616;42.140;24.760;2023-01-26T03:18:16;100300.16;;;4.14;62.61
52719;BME280;38616;42.140;24.760;2023-01-26T03:21:09;100289.59;;;3.94;63.28
52719;BME280;38616;42.140;24.760;2023-01-26T03:23:54;100285.94;;;4.07;63.68
52719;BME280;38616;42.140;24.760;2023-01-26T03:26:38;100284.81;;;3.96;63.60
52719;BME280;38616;42.140;24.760;2023-01-26T03:29:23;100288.69;;;4.25;62.41
52719;BME280;38616;42.140;24.760;2023-01-26T03:31:51;100291.94;;;4.09;63.30
52719;BME280;38616;42.140;24.760;2023-01-26T03:34:16;100276.34;;;3.92;63.59
52719;BME280;38616;42.140;24.760;2023-01-26T03:36:42;100271.47;;;4.08;63.55
52719;BME280;38616;42.140;24.760;2023-01-26T03:39:07;100259.88;;;4.07;62.49
52719;BME280;38616;42.140;24.760;2023-01-26T03:41:33;100254.19;;;4.41;61.23
52719;BME280;38616;42.140;24.760;2023-01-26T03:44:18;100251.75;;;4.14;61.65
52719;BME280;38616;42.140;24.760;2023-01-26T03:47:02;100253.28;;;4.28;61.67
52719;BME280;38616;42.140;24.760;2023-01-26T03:49:45;100255.16;;;4.03;61.11
52719;BME280;38616;42.140;24.760;2023-01-26T03:52:31;100251.59;;;4.09;61.35
52719;BME280;38616;42.140;24.760;2023-01-26T03:55:15;100247.47;;;4.32;60.81
52719;BME280;38616;42.140;24.760;2023-01-26T03:57:59;100231.72;;;4.10;61.11
52719;BME280;38616;42.140;24.760;2023-01-26T04:00:25;100235.34;;;4.22;60.90
52719;BME280;38616;42.140;24.760;2023-01-26T04:02:50;100231.00;;;4.21;61.02
52719;BME280;38616;42.140;24.760;2023-01-26T04:05:34;100235.63;;;4.51;60.21
52719;BME280;38616;42.140;24.760;2023-01-26T04:08:18;100222.19;;;4.33;59.51
52719;BME280;38616;42.140;24.760;2023-01-26T04:10:53;100220.84;;;4.42;60.10
52719;BME280;38616;42.140;24.760;2023-01-26T04:13:23;100228.53;;;4.38;60.09
52719;BME280;38616;42.140;24.760;2023-01-26T04:16:07;100239.22;;;4.45;59.22
52719;BME280;38616;42.140;24.760;2023-01-26T04:18:53;100228.88;;;4.05;60.09
52719;BME280;38616;42.140;24.760;2023-01-26T04:21:37;100224.22;;;3.93;60.19
52719;BME280;38616;42.140;24.760;2023-01-26T04:24:04;100229.19;;;4.15;59.86
52719;BME280;38616;42.140;24.760;2023-01-26T04:26:39;100215.97;;;4.13;59.69
52719;BME280;38616;42.140;24.760;2023-01-26T04:29:07;100215.91;;;4.20;59.46
52719;BME280;38616;42.140;24.760;2023-01-26T04:31:33;100216.06;;;4.25;58.45
52719;BME280;38616;42.140;24.760;2023-01-26T04:34:00;100206.81;;;4.40;58.84
52719;BME280;38616;42.140;24.760;2023-01-26T04:36:26;100210.41;;;4.34;58.61
52719;BME280;38616;42.140;24.760;2023-01-26T04:38:51;100207.84;;;4.20;58.73
52719;BME280;38616;42.140;24.760;2023-01-26T04:41:17;100208.06;;;4.19;58.77
52719;BME280;38616;42.140;24.760;2023-01-26T04:43:42;100199.50;;;4.03;59.01
52719;BME280;38616;42.140;24.760;2023-01-26T04:46:08;100197.75;;;4.16;58.41
52719;BME280;38616;42.140;24.760;2023-01-26T04:48:34;100203.66;;;4.24;58.62
52719;BME280;38616;42.140;24.760;2023-01-26T04:51:02;100196.56;;;4.30;59.11
52719;BME280;38616;42.140;24.760;2023-01-26T04:53:28;100195.59;;;4.24;59.05
52719;BME280;38616;42.140;24.760;2023-01-26T04:55:55;100200.09;;;4.31;59.33
52719;BME280;38616;42.140;24.760;2023-01-26T04:58:21;100205.16;;;4.20;60.07
52719;BME280;38616;42.140;24.760;2023-01-26T05:00:54;100206.34;;;4.24;59.50
52719;BME280;38616;42.140;24.760;2023-01-26T05:03:20;100212.75;;;4.05;60.00
52719;BME280;38616;42.140;24.760;2023-01-26T05:05:48;100215.91;;;4.20;60.38
52719;BME280;38616;42.140;24.760;2023-01-26T05:08:14;100214.28;;;4.19;59.93
52719;BME280;38616;42.140;24.760;2023-01-26T05:10:40;100207.41;;;4.23;59.23
52719;BME280;38616;42.140;24.760;2023-01-26T05:13:07;100203.41;;;4.07;60.10
52719;BME280;38616;42.140;24.760;2023-01-26T05:15:33;100198.53;;;3.97;60.43
52719;BME280;38616;42.140;24.760;2023-01-26T05:17:58;100198.13;;;4.19;60.12
52719;BME280;38616;42.140;24.760;2023-01-26T05:20:24;100203.44;;;4.44;59.58
52719;BME280;38616;42.140;24.760;2023-01-26T05:22:49;100198.41;;;4.11;59.78
52719;BME280;38616;42.140;24.760;2023-01-26T05:25:15;100189.03;;;4.20;59.60
52719;BME280;38616;42.140;24.760;2023-01-26T05:27:40;100194.56;;;4.25;59.37
52719;BME280;38616;42.140;24.760;2023-01-26T05:30:09;100185.63;;;4.06;59.63
52719;BME280;38616;42.140;24.760;2023-01-26T05:32:35;100181.72;;;4.02;60.24
52719;BME280;38616;42.140;24.760;2023-01-26T05:35:01;100182.19;;;3.99;60.12
52719;BME280;38616;42.140;24.760;2023-01-26T05:37:27;100175.25;;;3.91;60.66
52719;BME280;38616;42.140;24.760;2023-01-26T05:39:53;100177.72;;;4.11;60.29
52719;BME280;38616;42.140;24.760;2023-01-26T05:42:18;100179.50;;;4.18;59.94
52719;BME280;38616;42.140;24.760;2023-01-26T05:44:43;100178.41;;;4.25;59.70
52719;BME280;38616;42.140;24.760;2023-01-26T05:47:09;100173.31;;;4.17;58.75
52719;BME280;38616;42.140;24.760;2023-01-26T05:49:34;100175.19;;;4.17;58.93
52719;BME280;38616;42.140;24.760;2023-01-26T05:52:10;100177.19;;;4.03;59.52
52719;BME280;38616;42.140;24.760;2023-01-26T05:54:36;100179.44;;;4.06;59.32
52719;BME280;38616;42.140;24.760;2023-01-26T05:57:02;100182.28;;;4.29;59.19
52719;BME280;38616;42.140;24.760;2023-01-26T05:59:27;100171.81;;;4.03;59.38
52719;BME280;38616;42.140;24.760;2023-01-26T06:01:54;100175.69;;;3.88;59.67
52719;BME280;38616;42.140;24.760;2023-01-26T06:04:19;100179.72;;;3.97;59.91
52719;BME280;38616;42.140;24.760;2023-01-26T06:06:45;100163.50;;;4.04;59.55
52719;BME280;38616;42.140;24.760;2023-01-26T06:09:10;100159.13;;;4.10;59.74
52719;BME280;38616;42.140;24.760;2023-01-26T06:11:35;100159.63;;;4.00;60.16
52719;BME280;38616;42.140;24.760;2023-01-26T06:14:01;100165.91;;;4.12;59.69
52719;BME280;38616;42.140;24.760;2023-01-26T06:16:26;100151.13;;;4.03;60.16
52719;BME280;38616;42.140;24.760;2023-01-26T06:18:52;100151.16;;;3.78;60.02
52719;BME280;38616;42.140;24.760;2023-01-26T06:21:17;100151.44;;;3.95;60.58
52719;BME280;38616;42.140;24.760;2023-01-26T06:23:43;100166.25;;;3.79;59.88
52719;BME280;38616;42.140;24.760;2023-01-26T06:26:08;100167.75;;;3.49;61.86
52719;BME280;38616;42.140;24.760;2023-01-26T06:28:34;100156.25;;;3.42;62.14
52719;BME280;38616;42.140;24.760;2023-01-26T06:31:06;100166.97;;;3.42;61.66
52719;BME280;38616;42.140;24.760;2023-01-26T06:33:33;100176.41;;;2.94;63.48
52719;BME280;38616;42.140;24.760;2023-01-26T06:36:08;100176.28;;;2.75;64.12
52719;BME280;38616;42.140;24.760;2023-01-26T06:38:37;100169.75;;;3.03;64.49
52719;BME280;38616;42.140;24.760;2023-01-26T06:41:05;100160.84;;;3.35;63.76
52719;BME280;38616;42.140;24.760;2023-01-26T06:43:32;100160.91;;;2.96;63.92
52719;BME280;38616;42.140;24.760;2023-01-26T06:45:58;100153.38;;;3.12;64.30
52719;BME280;38616;42.140;24.760;2023-01-26T06:48:25;100158.44;;;3.77;62.83
52719;BME280;38616;42.140;24.760;2023-01-26T06:50:51;100153.66;;;3.79;62.47
52719;BME280;38616;42.140;24.760;2023-01-26T06:53:37;100150.00;;;3.48;63.41
52719;BME280;38616;42.140;24.760;2023-01-26T06:56:06;100146.44;;;3.29;63.94
52719;BME280;38616;42.140;24.760;2023-01-26T06:58:31;100144.44;;;3.43;64.31
52719;BME280;38616;42.140;24.760;2023-01-26T07:00:57;100144.53;;;3.04;65.59
52719;BME280;38616;42.140;24.760;2023-01-26T07:03:22;100136.47;;;3.36;65.08
52719;BME280;38616;42.140;24.760;2023-01-26T07:05:48;100140.63;;;3.32;65.12
52719;BME280;38616;42.140;24.760;2023-01-26T07:08:14;100128.78;;;3.15;64.87
52719;BME280;38616;42.140;24.760;2023-01-26T07:10:39;100134.47;;;3.25;64.59
52719;BME280;38616;42.140;24.760;2023-01-26T07:13:05;100131.03;;;3.43;64.70
52719;BME280;38616;42.140;24.760;2023-01-26T07:15:30;100133.66;;;3.24;65.32
52719;BME280;38616;42.140;24.760;2023-01-26T07:17:57;100130.47;;;3.60;63.91
52719;BME280;38616;42.140;24.760;2023-01-26T07:20:23;100125.78;;;3.74;63.40
52719;BME280;38616;42.140;24.760;2023-01-26T07:22:49;100117.44;;;4.01;63.15
52719;BME280;38616;42.140;24.760;2023-01-26T07:25:15;100104.22;;;3.99;62.24
52719;BME280;38616;42.140;24.760;2023-01-26T07:27:41;100111.56;;;3.92;61.79
52719;BME280;38616;42.140;24.760;2023-01-26T07:30:07;100093.53;;;3.92;61.38
52719;BME280;38616;42.140;24.760;2023-01-26T07:32:33;100093.84;;;4.03;61.74
52719;BME280;38616;42.140;24.760;2023-01-26T07:34:59;100103.75;;;4.02;62.00
52719;BME280;38616;42.140;24.760;2023-01-26T07:37:28;100105.41;;;4.22;61.85
52719;BME280;38616;42.140;24.760;2023-01-26T07:39:53;100112.38;;;4.29;61.49
52719;BME280;38616;42.140;24.760;2023-01-26T07:42:19;100111.03;;;4.20;61.74
52719;BME280;38616;42.140;24.760;2023-01-26T07:44:44;100097.34;;;4.22;61.81
52719;BME280;38616;42.140;24.760;2023-01-26T07:47:09;100105.72;;;4.13;62.46
52719;BME280;38616;42.140;24.760;2023-01-26T07:49:35;100092.94;;;4.09;62.24
52719;BME280;38616;42.140;24.760;2023-01-26T07:52:00;100086.97;;;4.25;62.21
52719;BME280;38616;42.140;24.760;2023-01-26T07:54:26;100098.31;;;4.27;61.96
52719;BME280;38616;42.140;24.760;2023-01-26T07:56:52;100098.78;;;4.24;62.24
52719;BME280;38616;42.140;24.760;2023-01-26T07:59:21;100091.81;;;4.17;63.20
52719;BME280;38616;42.140;24.760;2023-01-26T08:01:50;100109.88;;;4.28;63.09
52719;BME280;38616;42.140;24.760;2023-01-26T08:04:16;100100.31;;;4.13;63.96
52719;BME280;38616;42.140;24.760;2023-01-26T08:06:42;100090.72;;;4.06;64.38
52719;BME280;38616;42.140;24.760;2023-01-26T08:09:07;100090.56;;;4.19;64.64
52719;BME280;38616;42.140;24.760;2023-01-26T08:11:36;100104.28;;;4.29;65.00
52719;BME280;38616;42.140;24.760;2023-01-26T08:14:02;100091.97;;;4.22;65.25
52719;BME280;38616;42.140;24.760;2023-01-26T08:16:27;100101.06;;;4.21;64.87
52719;BME280;38616;42.140;24.760;2023-01-26T08:18:53;100103.72;;;4.09;65.62
52719;BME280;38616;42.140;24.760;2023-01-26T08:21:19;100086.91;;;3.95;65.30
52719;BME280;38616;42.140;24.760;2023-01-26T08:23:48;100091.31;;;4.08;65.78
52719;BME280;38616;42.140;24.760;2023-01-26T08:26:15;100095.34;;;4.17;65.98
52719;BME280;38616;42.140;24.760;2023-01-26T08:28:42;100093.53;;;4.11;66.18
52719;BME280;38616;42.140;24.760;2023-01-26T08:31:14;100089.22;;;3.91;66.19
52719;BME280;38616;42.140;24.760;2023-01-26T08:33:42;100086.81;;;3.83;66.73
52719;BME280;38616;42.140;24.760;2023-01-26T08:36:13;100088.03;;;3.87;66.79
52719;BME280;38616;42.140;24.760;2023-01-26T08:38:39;100085.88;;;3.96;66.57
52719;BME280;38616;42.140;24.760;2023-01-26T08:41:06;100080.09;;;3.92;66.94
52719;BME280;38616;42.140;24.760;2023-01-26T08:43:31;100081.84;;;3.87;67.06
52719;BME280;38616;42.140;24.760;2023-01-26T08:45:57;100069.63;;;3.65;67.70
52719;BME280;38616;42.140;24.760;2023-01-26T08:48:23;100066.78;;;3.60;67.69
52719;BME280;38616;42.140;24.760;2023-01-26T08:50:53;100069.56;;;3.53;68.91
52719;BME280;38616;42.140;24.760;2023-01-26T08:53:18;100073.97;;;3.66;69.13
52719;BME280;38616;42.140;24.760;2023-01-26T08:55:44;100064.03;;;4.04;68.11
52719;BME280;38616;42.140;24.760;2023-01-26T08:58:09;100061.28;;;3.92;68.34
52719;BME280;38616;42.140;24.760;2023-01-26T09:00:35;100046.22;;;3.91;68.14
52719;BME280;38616;42.140;24.760;2023-01-26T09:03:02;100060.09;;;3.88;68.00
52719;BME280;38616;42.140;24.760;2023-01-26T09:05:33;100055.31;;;3.72;69.09
52719;BME280;38616;42.140;24.760;2023-01-26T09:07:59;100058.06;;;4.02;68.77
52719;BME280;38616;42.140;24.760;2023-01-26T09:10:25;100057.09;;;3.96;69.45
52719;BME280;38616;42.140;24.760;2023-01-26T09:12:50;100059.03;;;4.08;69.02
52719;BME280;38616;42.140;24.760;2023-01-26T09:15:16;100048.88;;;4.10;69.13
52719;BME280;38616;42.140;24.760;2023-01-26T09:17:41;100053.91;;;3.88;69.65
52719;BME280;38616;42.140;24.760;2023-01-26T09:20:08;100045.75;;;4.13;69.10
52719;BME280;38616;42.140;24.760;2023-01-26T09:22:34;100049.03;;;3.96;69.75
52719;BME280;38616;42.140;24.760;2023-01-26T09:24:59;100047.03;;;3.92;70.19
52719;BME280;38616;42.140;24.760;2023-01-26T09:27:25;100032.16;;;3.89;69.48
52719;BME280;38616;42.140;24.760;2023-01-26T09:29:50;100030.50;;;4.07;69.38
52719;BME280;38616;42.140;24.760;2023-01-26T09:32:16;100034.09;;;4.01;69.13
52719;BME280;38616;42.140;24.760;2023-01-26T09:34:42;100031.38;;;3.89;69.71
52719;BME280;38616;42.140;24.760;2023-01-26T09:37:07;100008.44;;;3.67;69.84
52719;BME280;38616;42.140;24.760;2023-01-26T09:39:33;99998.44;;;3.75;70.17
52719;BME280;38616;42.140;24.760;2023-01-26T09:44:26;99991.22;;;4.06;69.98
52719;BME280;38616;42.140;24.760;2023-01-26T09:47:05;100004.63;;;4.24;69.22
52719;BME280;38616;42.140;24.760;2023-01-26T09:49:48;99987.66;;;3.93;69.49
52719;BME280;38616;42.140;24.760;2023-01-26T09:52:25;99993.00;;;3.63;70.75
52719;BME280;38616;42.140;24.760;2023-01-26T09:54:57;99975.56;;;3.84;70.43
52719;BME280;38616;42.140;24.760;2023-01-26T10:08:12;99957.94;;;3.88;70.13
52719;BME280;38616;42.140;24.760;2023-01-26T10:10:51;99940.47;;;3.97;70.46
52719;BME280;38616;42.140;24.760;2023-01-26T10:13:19;99939.03;;;4.25;70.15
52719;BME280;38616;42.140;24.760;2023-01-26T10:15:50;99944.56;;;4.31;69.32
52719;BME280;38616;42.140;24.760;2023-01-26T10:18:23;99933.75;;;4.19;69.90
52719;BME280;38616;42.140;24.760;2023-01-26T10:20:53;99940.59;;;3.72;70.30
52719;BME280;38616;42.140;24.760;2023-01-26T10:23:26;99941.22;;;3.86;71.99
52719;BME280;38616;42.140;24.760;2023-01-26T10:25:56;99939.69;;;4.09;70.91
52719;BME280;38616;42.140;24.760;2023-01-26T10:28:28;99944.69;;;3.75;71.16
52719;BME280;38616;42.140;24.760;2023-01-26T10:30:55;99928.31;;;3.95;71.01
52719;BME280;38616;42.140;24.760;2023-01-26T10:33:29;99917.31;;;3.96;71.21
52719;BME280;38616;42.140;24.760;2023-01-26T10:35:55;99906.00;;;3.76;71.24
52719;BME280;38616;42.140;24.760;2023-01-26T10:41:00;99896.25;;;4.36;69.61
52719;BME280;38616;42.140;24.760;2023-01-26T10:43:26;99880.72;;;3.95;70.16
52719;BME280;38616;42.140;24.760;2023-01-26T10:45:52;99875.31;;;3.83;69.71
52719;BME280;38616;42.140;24.760;2023-01-26T10:48:20;99869.44;;;3.75;71.58
52719;BME280;38616;42.140;24.760;2023-01-26T10:50:49;99879.91;;;3.95;70.80
52719;BME280;38616;42.140;24.760;2023-01-26T10:53:23;99872.25;;;3.80;70.49
52719;BME280;38616;42.140;24.760;2023-01-26T10:56:10;99870.25;;;4.18;70.57
52719;BME280;38616;42.140;24.760;2023-01-26T11:01:12;99861.41;;;4.41;69.74
52719;BME280;38616;42.140;24.760;2023-01-26T11:04:06;99855.78;;;4.31;68.97
52719;BME280;38616;42.140;24.760;2023-01-26T11:06:36;99859.88;;;4.21;68.98
52719;BME280;38616;42.140;24.760;2023-01-26T11:09:26;99856.47;;;4.26;69.54
52719;BME280;38616;42.140;24.760;2023-01-26T11:11:58;99852.38;;;4.35;69.52
52719;BME280;38616;42.140;24.760;2023-01-26T11:14:24;99843.16;;;4.19;70.21
52719;BME280;38616;42.140;24.760;2023-01-26T11:17:16;99842.59;;;4.41;69.45
52719;BME280;38616;42.140;24.760;2023-01-26T11:22:32;99838.28;;;3.86;71.40
52719;BME280;38616;42.140;24.760;2023-01-26T11:25:16;99832.50;;;4.36;70.36
52719;BME280;38616;42.140;24.760;2023-01-26T11:28:23;99825.28;;;4.37;69.29
52719;BME280;38616;42.140;24.760;2023-01-26T11:33:37;99814.00;;;4.04;70.53
52719;BME280;38616;42.140;24.760;2023-01-26T11:42:24;99779.28;;;4.03;71.39
52719;BME280;38616;42.140;24.760;2023-01-26T11:48:00;99770.75;;;4.06;70.31
52719;BME280;38616;42.140;24.760;2023-01-26T11:58:48;99757.41;;;4.47;68.95
52719;BME280;38616;42.140;24.760;2023-01-26T12:01:32;99751.69;;;4.43;69.73
52719;BME280;38616;42.140;24.760;2023-01-26T12:03:59;99745.53;;;4.83;68.81
52719;BME280;38616;42.140;24.760;2023-01-26T12:06:36;99740.44;;;4.46;69.62
52719;BME280;38616;42.140;24.760;2023-01-26T12:11:47;99730.28;;;4.36;70.04
52719;BME280;38616;42.140;24.760;2023-01-26T12:14:40;99730.13;;;4.67;68.31
52719;BME280;38616;42.140;24.760;2023-01-26T12:22:51;99725.66;;;4.72;68.63
52719;BME280;38616;42.140;24.760;2023-01-26T12:25:35;99730.72;;;4.57;69.30
52719;BME280;38616;42.140;24.760;2023-01-26T12:28:26;99724.38;;;4.75;68.81
52719;BME280;38616;42.140;24.760;2023-01-26T12:31:12;99722.66;;;4.57;69.40
52719;BME280;38616;42.140;24.760;2023-01-26T12:33:39;99729.22;;;4.49;69.77
52719;BME280;38616;42.140;24.760;2023-01-26T12:46:57;99707.09;;;4.59;69.39
52719;BME280;38616;42.140;24.760;2023-01-26T12:49:32;99705.19;;;4.71;69.12
52719;BME280;38616;42.140;24.760;2023-01-26T12:52:05;99706.16;;;4.65;69.27
52719;BME280;38616;42.140;24.760;2023-01-26T12:57:14;99691.53;;;4.49;69.05
52719;BME280;38616;42.140;24.760;2023-01-26T12:59:41;99694.63;;;4.41;69.69
52719;BME280;38616;42.140;24.760;2023-01-26T13:04:49;99688.69;;;4.68;69.91
52719;BME280;38616;42.140;24.760;2023-01-26T13:07:29;99692.59;;;4.60;70.13
52719;BME280;38616;42.140;24.760;2023-01-26T13:10:19;99695.09;;;4.38;71.11
52719;BME280;38616;42.140;24.760;2023-01-26T13:12:59;99681.72;;;4.43;71.31
52719;BME280;38616;42.140;24.760;2023-01-26T13:15:29;99675.13;;;4.34;70.88
52719;BME280;38616;42.140;24.760;2023-01-26T13:18:00;99676.72;;;4.47;70.29
52719;BME280;38616;42.140;24.760;2023-01-26T13:20:43;99674.94;;;4.52;70.31
52719;BME280;38616;42.140;24.760;2023-01-26T13:23:40;99665.69;;;4.60;70.12
52719;BME280;38616;42.140;24.760;2023-01-26T13:26:12;99664.16;;;4.52;70.49
52719;BME280;38616;42.140;24.760;2023-01-26T13:28:42;99657.47;;;4.67;69.98
52719;BME280;38616;42.140;24.760;2023-01-26T13:31:09;99665.25;;;4.80;70.06
52719;BME280;38616;42.140;24.760;2023-01-26T13:33:35;99660.25;;;4.72;70.11
52719;BME280;38616;42.140;24.760;2023-01-26T13:36:02;99656.88;;;4.65;70.02
52719;BME280;38616;42.140;24.760;2023-01-26T13:38:33;99657.31;;;4.44;70.34
52719;BME280;38616;42.140;24.760;2023-01-26T13:41:00;99627.53;;;4.10;71.32
52719;BME280;38616;42.140;24.760;2023-01-26T13:48:53;99625.69;;;3.99;71.50
52719;BME280;38616;42.140;24.760;2023-01-26T13:51:45;99628.97;;;4.13;71.73
52719;BME280;38616;42.140;24.760;2023-01-26T13:54:12;99619.38;;;4.17;71.11
52719;BME280;38616;42.140;24.760;2023-01-26T13:56:43;99615.34;;;4.32;71.89
52719;BME280;38616;42.140;24.760;2023-01-26T13:59:23;99612.25;;;4.52;70.76
52719;BME280;38616;42.140;24.760;2023-01-26T14:01:51;99610.41;;;4.40;71.04
52719;BME280;38616;42.140;24.760;2023-01-26T14:04:20;99593.50;;;4.57;70.50
52719;BME280;38616;42.140;24.760;2023-01-26T14:07:02;99590.34;;;4.60;70.19
52719;BME280;38616;42.140;24.760;2023-01-26T14:09:33;99574.31;;;4.53;70.08
52719;BME280;38616;42.140;24.760;2023-01-26T14:12:03;99584.28;;;4.53;70.25
52719;BME280;38616;42.140;24.760;2023-01-26T14:14:34;99585.66;;;4.55;70.80
52719;BME280;38616;42.140;24.760;2023-01-26T14:17:06;99577.28;;;4.52;70.85
52719;BME280;38616;42.140;24.760;2023-01-26T14:19:38;99571.31;;;4.50;70.84
52719;BME280;38616;42.140;24.760;2023-01-26T14:22:10;99570.91;;;4.41;71.23
52719;BME280;38616;42.140;24.760;2023-01-26T14:24:37;99567.06;;;4.37;71.17